Time;durP1;ratioP1;P1;durP2;ratioP2;P2;SDS_P1;SDS_P2;PMS_P1;PMS_P2;Temp;Humidity;BMP_temperature;BMP_pressure;BME280_temperature;BME280_humidity;BME280_pressure;Samples;Min_cycle;Max_cycle;Signal;HPM_P1;HPM_P2
2022/01/08 00:00:21;;;;;;;1999.90;819.97;;;;;;;;;;5036257;28;20039;-86
2022/01/08 00:02:48;;;;;;;1878.32;865.83;;;;;;;;;;5035661;28;20028;-86
2022/01/08 00:05:14;;;;;;;1999.90;625.60;;;;;;;;;;5019596;28;20080;-86
2022/01/08 00:07:42;;;;;;;1999.90;950.30;;;;;;;;;;5002949;28;20082;-86
2022/01/08 00:10:09;;;;;;;1999.90;724.53;;;;;;;;;;4995954;28;20063;-87
2022/01/08 00:12:34;;;;;;;1999.90;999.90;;;;;;;;;;4996115;28;20029;-86
2022/01/08 00:15:00;;;;;;;1999.90;924.88;;;;;;;;;;4996303;28;20044;-86
2022/01/08 00:17:26;;;;;;;1999.90;783.55;;;;;;;;;;5004421;28;20036;-86
2022/01/08 00:19:52;;;;;;;1999.90;820.25;;;;;;;;;;5028671;28;20036;-86
2022/01/08 00:22:21;;;;;;;1793.80;818.72;;;;;;;;;;5028245;28;20479;-86
2022/01/08 00:24:47;;;;;;;1999.90;804.70;;;;;;;;;;5023602;28;20034;-86
2022/01/08 00:27:13;;;;;;;1999.90;999.90;;;;;;;;;;5024952;28;20025;-86
2022/01/08 00:29:40;;;;;;;1999.90;523.72;;;;;;;;;;5018599;28;20118;-85
2022/01/08 00:32:05;;;;;;;1999.90;921.45;;;;;;;;;;5002672;28;20064;-86
2022/01/08 00:34:31;;;;;;;1650.40;775.10;;;;;;;;;;4993170;28;20061;-86
2022/01/08 00:36:56;;;;;;;1999.90;842.80;;;;;;;;;;4983222;28;20075;-86
2022/01/08 00:39:22;;;;;;;1999.90;716.60;;;;;;;;;;4982301;28;20026;-86
2022/01/08 00:41:47;;;;;;;1999.90;884.55;;;;;;;;;;4999026;28;20040;-85
2022/01/08 00:44:16;;;;;;;1999.90;539.47;;;;;;;;;;5015255;28;20033;-85
2022/01/08 00:46:42;;;;;;;1999.90;914.75;;;;;;;;;;5031418;28;20419;-85
2022/01/08 00:49:09;;;;;;;1999.90;979.58;;;;;;;;;;5014486;28;20026;-85
2022/01/08 00:51:34;;;;;;;1999.90;931.72;;;;;;;;;;5031113;28;22608;-84
2022/01/08 00:54:00;;;;;;;1999.90;763.00;;;;;;;;;;5014220;28;20025;-85
2022/01/08 00:56:25;;;;;;;1999.90;950.35;;;;;;;;;;5047552;28;20033;-85
2022/01/08 00:58:51;;;;;;;1999.90;933.15;;;;;;;;;;5031225;28;20022;-84
2022/01/08 01:01:17;;;;;;;1999.90;674.45;;;;;;;;;;5064443;28;20106;-85
2022/01/08 01:03:43;;;;;;;1999.90;835.13;;;;;;;;;;5064904;28;20052;-85
2022/01/08 01:06:08;;;;;;;1999.90;621.80;;;;;;;;;;5000588;28;20053;-84
2022/01/08 01:08:34;;;;;;;1999.90;966.72;;;;;;;;;;4985784;28;20037;-85
2022/01/08 01:10:59;;;;;;;1999.90;647.00;;;;;;;;;;5014086;28;20033;-84
2022/01/08 01:13:25;;;;;;;1999.90;698.20;;;;;;;;;;5014429;28;20029;-84
2022/01/08 01:15:50;;;;;;;1990.80;462.17;;;;;;;;;;5030799;28;20384;-84
2022/01/08 01:18:16;;;;;;;1999.90;569.78;;;;;;;;;;5027383;28;20034;-85
2022/01/08 01:20:42;;;;;;;1999.90;917.13;;;;;;;;;;4978690;28;20034;-85
2022/01/08 01:23:12;;;;;;;1999.90;772.95;;;;;;;;;;5010901;28;20029;-85
2022/01/08 01:25:48;;;;;;;1999.90;999.90;;;;;;;;;;5017868;28;20439;-85
2022/01/08 01:47:14;;;;;;;1999.90;832.45;;;;;;;;;;5023469;28;20845;-84
2022/01/08 01:49:40;;;;;;;1999.90;873.65;;;;;;;;;;5017601;28;20087;-84
2022/01/08 01:52:07;;;;;;;1999.90;978.50;;;;;;;;;;5016955;28;20413;-85
2022/01/08 01:54:33;;;;;;;1999.90;734.45;;;;;;;;;;4994670;28;20546;-84
2022/01/08 01:57:00;;;;;;;1999.90;983.70;;;;;;;;;;4994538;28;20042;-85
2022/01/08 01:59:27;;;;;;;1999.90;911.40;;;;;;;;;;4978463;28;20030;-84
2022/01/08 02:01:52;;;;;;;1999.90;829.65;;;;;;;;;;5001392;28;20029;-84
2022/01/08 02:04:19;;;;;;;1999.90;999.90;;;;;;;;;;5030743;28;20223;-85
2022/01/08 02:06:46;;;;;;;1999.90;999.90;;;;;;;;;;5030220;28;20034;-85
2022/01/08 02:09:11;;;;;;;1999.90;875.10;;;;;;;;;;4997618;28;20056;-84
2022/01/08 02:11:59;;;;;;;1999.90;780.80;;;;;;;;;;4998866;28;20108;-85
2022/01/08 02:14:25;;;;;;;1999.90;999.90;;;;;;;;;;5046811;28;20392;-85
2022/01/08 02:16:50;;;;;;;1999.90;863.60;;;;;;;;;;5014965;28;20034;-85
2022/01/08 02:19:16;;;;;;;1730.72;804.70;;;;;;;;;;5016965;28;20049;-85
2022/01/08 02:21:53;;;;;;;1747.38;794.83;;;;;;;;;;5004048;28;20116;-85
2022/01/08 02:24:18;;;;;;;1999.90;898.15;;;;;;;;;;5001926;28;20037;-85
2022/01/08 02:26:44;;;;;;;1874.47;821.50;;;;;;;;;;4990418;28;20039;-85
2022/01/08 02:29:20;;;;;;;1999.90;647.10;;;;;;;;;;5000961;28;20079;-85
2022/01/08 02:31:56;;;;;;;1578.50;761.10;;;;;;;;;;5000803;28;20029;-85
2022/01/08 02:34:22;;;;;;;1999.90;712.58;;;;;;;;;;4981333;28;20021;-85
2022/01/08 02:36:47;;;;;;;1999.90;488.45;;;;;;;;;;4965389;28;20380;-86
2022/01/08 02:39:14;;;;;;;1195.18;271.45;;;;;;;;;;4981417;28;20032;-85
2022/01/08 02:41:40;;;;;;;1999.90;874.05;;;;;;;;;;4997650;28;20030;-85
2022/01/08 02:44:06;;;;;;;1690.28;442.33;;;;;;;;;;5006700;28;20037;-85
2022/01/08 02:46:33;;;;;;;1999.90;574.20;;;;;;;;;;5004246;28;20029;-85
2022/01/08 02:48:59;;;;;;;1999.90;999.90;;;;;;;;;;5020790;28;20033;-85
2022/01/08 02:51:24;;;;;;;1999.90;999.90;;;;;;;;;;5035816;28;20040;-85
2022/01/08 02:53:51;;;;;;;1999.90;929.17;;;;;;;;;;5033150;28;20040;-86
2022/01/08 02:56:17;;;;;;;1999.90;597.50;;;;;;;;;;5001107;28;20030;-86
2022/01/08 02:58:43;;;;;;;1999.90;999.90;;;;;;;;;;5000930;28;20017;-86
2022/01/08 03:01:11;;;;;;;1999.90;778.88;;;;;;;;;;4984845;28;20116;-85
2022/01/08 03:03:36;;;;;;;1999.90;698.05;;;;;;;;;;5017071;28;20029;-86
2022/01/08 03:06:02;;;;;;;1593.20;421.10;;;;;;;;;;4994396;28;20111;-85
2022/01/08 03:08:28;;;;;;;1789.68;475.40;;;;;;;;;;5020039;28;20021;-86
2022/01/08 03:10:54;;;;;;;1999.90;999.90;;;;;;;;;;4993610;28;20039;-84
2022/01/08 03:13:19;;;;;;;1999.90;999.90;;;;;;;;;;5000618;28;20104;-85
2022/01/08 03:15:46;;;;;;;1999.90;781.97;;;;;;;;;;4984287;28;20065;-84
2022/01/08 03:18:12;;;;;;;1999.90;574.10;;;;;;;;;;5008909;28;20047;-85
2022/01/08 03:20:46;;;;;;;1618.65;358.67;;;;;;;;;;5003131;28;20037;-85
2022/01/08 03:23:17;;;;;;;1999.90;999.90;;;;;;;;;;5020434;28;20029;-84
2022/01/08 03:25:43;;;;;;;1999.90;940.70;;;;;;;;;;5020915;28;20115;-84
2022/01/08 03:28:10;;;;;;;1983.22;525.45;;;;;;;;;;5015775;28;20117;-83
2022/01/08 03:30:39;;;;;;;1999.90;989.67;;;;;;;;;;5000582;28;20060;-84
2022/01/08 03:33:04;;;;;;;1999.90;594.28;;;;;;;;;;5009644;28;20029;-83
2022/01/08 03:35:31;;;;;;;1999.90;999.90;;;;;;;;;;4985912;28;20075;-85
2022/01/08 03:37:57;;;;;;;1999.90;688.95;;;;;;;;;;5016099;28;20031;-83
2022/01/08 03:40:22;;;;;;;1999.90;911.72;;;;;;;;;;5016177;28;20116;-84
2022/01/08 03:42:48;;;;;;;1999.90;999.90;;;;;;;;;;5032188;28;20029;-84
2022/01/08 03:45:14;;;;;;;1352.35;598.42;;;;;;;;;;5016199;28;20040;-84
2022/01/08 03:50:14;;;;;;;1999.90;999.90;;;;;;;;;;5032249;28;20029;-83
2022/01/08 03:52:40;;;;;;;1999.90;627.15;;;;;;;;;;5031911;28;20071;-83
2022/01/08 03:55:06;;;;;;;1672.85;465.95;;;;;;;;;;5015603;28;20116;-83
2022/01/08 03:57:31;;;;;;;1999.90;429.20;;;;;;;;;;4983360;28;20090;-83
2022/01/08 03:59:57;;;;;;;1999.90;923.10;;;;;;;;;;4999191;28;20109;-83
2022/01/08 04:02:22;;;;;;;1999.90;895.65;;;;;;;;;;4999273;28;20048;-83
2022/01/08 04:04:48;;;;;;;1999.90;579.35;;;;;;;;;;5035582;28;20037;-83
2022/01/08 04:07:14;;;;;;;1999.90;870.03;;;;;;;;;;5019231;28;20031;-83
2022/01/08 04:09:39;;;;;;;1999.90;762.38;;;;;;;;;;5018773;28;20036;-83
2022/01/08 04:12:06;;;;;;;1999.90;999.90;;;;;;;;;;5002256;28;20119;-83
2022/01/08 04:14:46;;;;;;;1999.90;896.92;;;;;;;;;;5002759;28;20501;-83
2022/01/08 04:17:14;;;;;;;1701.40;376.30;;;;;;;;;;5034615;28;20087;-83
2022/01/08 04:19:39;;;;;;;1999.90;999.90;;;;;;;;;;5023943;28;20480;-84
2022/01/08 04:22:12;;;;;;;1999.90;999.90;;;;;;;;;;5012404;28;20108;-83
2022/01/08 04:24:41;;;;;;;1999.90;643.65;;;;;;;;;;5046989;28;20484;-84
2022/01/08 04:27:07;;;;;;;1999.90;573.70;;;;;;;;;;5031334;28;20144;-83
2022/01/08 04:29:32;;;;;;;1999.90;702.50;;;;;;;;;;5044664;28;20504;-83
2022/01/08 04:31:58;;;;;;;1999.90;860.60;;;;;;;;;;4994914;28;20022;-83
2022/01/08 04:34:23;;;;;;;1999.90;973.30;;;;;;;;;;5003607;28;20083;-83
2022/01/08 04:36:49;;;;;;;1999.90;806.90;;;;;;;;;;4982689;28;20082;-83
2022/01/08 04:39:15;;;;;;;1999.90;771.25;;;;;;;;;;4982455;28;20025;-83
2022/01/08 04:41:43;;;;;;;1999.90;999.90;;;;;;;;;;4997822;28;20032;-83
2022/01/08 04:44:09;;;;;;;1999.90;948.03;;;;;;;;;;4995543;28;20088;-83
2022/01/08 04:46:34;;;;;;;1999.90;861.40;;;;;;;;;;4978852;28;20029;-83
2022/01/08 04:49:00;;;;;;;1999.90;812.63;;;;;;;;;;4979056;28;20432;-84
2022/01/08 04:51:25;;;;;;;1999.90;986.67;;;;;;;;;;4994849;28;20041;-83
2022/01/08 04:53:51;;;;;;;1823.22;454.58;;;;;;;;;;5008826;28;20045;-83
2022/01/08 04:56:16;;;;;;;1999.90;870.33;;;;;;;;;;5034623;28;20029;-83
2022/01/08 04:58:42;;;;;;;1999.90;999.90;;;;;;;;;;5034046;28;20163;-83
2022/01/08 05:01:17;;;;;;;1999.90;999.90;;;;;;;;;;5033853;28;20029;-84
2022/01/08 05:03:42;;;;;;;1999.90;999.90;;;;;;;;;;5001708;28;20036;-83
2022/01/08 05:06:08;;;;;;;1728.00;325.40;;;;;;;;;;5001243;28;20021;-83
2022/01/08 05:08:33;;;;;;;1999.90;921.40;;;;;;;;;;5017190;28;20066;-83
2022/01/08 05:11:00;;;;;;;1999.90;969.35;;;;;;;;;;5017573;28;20098;-84
2022/01/08 05:13:26;;;;;;;1999.90;999.90;;;;;;;;;;5017536;28;20162;-83
2022/01/08 05:15:52;;;;;;;1999.90;651.45;;;;;;;;;;5001200;28;20045;-83
2022/01/08 05:18:18;;;;;;;1999.90;820.85;;;;;;;;;;4992938;28;20048;-83
2022/01/08 05:20:55;;;;;;;1951.82;632.83;;;;;;;;;;5007895;28;20071;-83
2022/01/08 05:23:20;;;;;;;1999.90;999.90;;;;;;;;;;5003546;28;20032;-84
2022/01/08 05:25:45;;;;;;;1999.90;999.90;;;;;;;;;;5016839;28;20040;-83
2022/01/08 05:28:12;;;;;;;1999.90;944.40;;;;;;;;;;4981981;28;20383;-83
2022/01/08 05:30:37;;;;;;;1563.60;361.17;;;;;;;;;;4997625;28;20035;-83
2022/01/08 05:33:03;;;;;;;1999.90;999.90;;;;;;;;;;4997655;28;20041;-84
2022/01/08 05:35:28;;;;;;;1999.90;544.30;;;;;;;;;;5010832;28;20034;-83
2022/01/08 05:37:55;;;;;;;1999.90;846.30;;;;;;;;;;4978339;28;20033;-84
2022/01/08 05:40:21;;;;;;;1999.90;732.33;;;;;;;;;;4982555;28;20475;-84
2022/01/08 05:42:48;;;;;;;1999.90;999.90;;;;;;;;;;5030696;28;20029;-84
2022/01/08 05:45:13;;;;;;;1999.90;564.85;;;;;;;;;;5029787;28;20033;-84
2022/01/08 05:47:39;;;;;;;1999.90;834.20;;;;;;;;;;4997652;28;20052;-84
2022/01/08 05:50:05;;;;;;;1999.90;773.00;;;;;;;;;;5013953;28;20025;-84
2022/01/08 05:52:30;;;;;;;1999.90;723.42;;;;;;;;;;5032487;28;20033;-84
2022/01/08 05:54:56;;;;;;;1411.40;288.92;;;;;;;;;;5001819;28;20082;-84
2022/01/08 05:57:21;;;;;;;1999.90;895.03;;;;;;;;;;4985917;28;20033;-84
2022/01/08 05:59:48;;;;;;;1657.40;459.90;;;;;;;;;;5017655;28;20071;-85
2022/01/08 06:02:13;;;;;;;1999.90;946.38;;;;;;;;;;5019253;28;20037;-85
2022/01/08 06:04:40;;;;;;;1536.40;489.08;;;;;;;;;;5021858;28;20506;-84
2022/01/08 06:07:06;;;;;;;1999.90;999.90;;;;;;;;;;5021378;28;20120;-85
2022/01/08 06:09:35;;;;;;;1990.68;562.78;;;;;;;;;;5037435;28;20077;-85
2022/01/08 06:12:04;;;;;;;1999.90;999.90;;;;;;;;;;5021205;28;20025;-85
2022/01/08 06:14:29;;;;;;;1999.90;947.67;;;;;;;;;;5004806;28;20044;-86
2022/01/08 06:16:55;;;;;;;1999.90;999.90;;;;;;;;;;5037606;28;20037;-86
2022/01/08 06:19:22;;;;;;;1828.32;723.10;;;;;;;;;;4988044;28;20025;-85
2022/01/08 06:21:47;;;;;;;1999.90;593.03;;;;;;;;;;5001402;28;20044;-86
2022/01/08 06:24:15;;;;;;;1999.90;999.90;;;;;;;;;;5017700;28;20037;-86
2022/01/08 06:26:41;;;;;;;1999.90;948.65;;;;;;;;;;5001618;28;20037;-86
2022/01/08 06:29:07;;;;;;;1999.90;999.90;;;;;;;;;;5033953;28;20033;-85
2022/01/08 06:31:34;;;;;;;1999.90;999.90;;;;;;;;;;4985406;28;20029;-85
2022/01/08 06:34:02;;;;;;;1999.90;999.90;;;;;;;;;;4985329;28;20120;-87
2022/01/08 06:36:28;;;;;;;1924.10;871.97;;;;;;;;;;5001512;28;20037;-86
2022/01/08 06:38:55;;;;;;;1999.90;669.92;;;;;;;;;;4981961;28;20034;-86
2022/01/08 06:41:20;;;;;;;1999.90;885.03;;;;;;;;;;4981969;28;20026;-86
2022/01/08 06:43:46;;;;;;;1174.50;293.60;;;;;;;;;;4981504;28;20384;-87
2022/01/08 06:46:11;;;;;;;1999.90;862.17;;;;;;;;;;4981439;28;20391;-87
2022/01/08 06:48:37;;;;;;;1999.90;775.78;;;;;;;;;;4996530;28;20028;-87
2022/01/08 06:51:02;;;;;;;1871.18;504.60;;;;;;;;;;4997862;28;20506;-88
2022/01/08 06:53:28;;;;;;;1724.68;402.95;;;;;;;;;;5000775;28;20040;-88
2022/01/08 06:55:53;;;;;;;1999.90;999.90;;;;;;;;;;5050546;28;20052;-87
2022/01/08 06:58:20;;;;;;;1999.90;898.97;;;;;;;;;;5050027;28;20037;-86
2022/01/08 07:00:46;;;;;;;1999.90;830.05;;;;;;;;;;5002000;28;20033;-87
2022/01/08 07:03:14;;;;;;;1999.90;999.90;;;;;;;;;;4983839;28;20079;-87
2022/01/08 07:05:41;;;;;;;1999.90;996.63;;;;;;;;;;5033757;28;20030;-86
2022/01/08 07:08:08;;;;;;;1999.90;999.90;;;;;;;;;;5033757;28;20088;-86
2022/01/08 07:10:34;;;;;;;1999.90;568.30;;;;;;;;;;5033816;28;20068;-86
2022/01/08 07:13:01;;;;;;;1999.90;709.47;;;;;;;;;;5049842;28;20479;-87
2022/01/08 07:15:27;;;;;;;1999.90;999.90;;;;;;;;;;5017473;28;20034;-87
2022/01/08 07:17:53;;;;;;;1999.90;746.55;;;;;;;;;;5017315;28;20033;-87
2022/01/08 07:20:20;;;;;;;1999.90;711.72;;;;;;;;;;5033538;28;20041;-86
2022/01/08 07:22:46;;;;;;;1999.90;999.90;;;;;;;;;;5032886;28;20116;-86
2022/01/08 07:25:12;;;;;;;1999.90;999.90;;;;;;;;;;5016740;28;20037;-86
2022/01/08 07:27:40;;;;;;;1999.90;893.42;;;;;;;;;;5033059;28;20033;-85
2022/01/08 07:30:06;;;;;;;1999.90;831.67;;;;;;;;;;5000424;28;20031;-86
2022/01/08 07:32:34;;;;;;;1999.90;984.15;;;;;;;;;;5016480;28;20083;-86
2022/01/08 07:35:00;;;;;;;1999.90;988.60;;;;;;;;;;4984219;28;20045;-86
2022/01/08 07:37:25;;;;;;;1321.72;558.45;;;;;;;;;;4980434;28;20037;-86
2022/01/08 07:39:51;;;;;;;1999.90;956.95;;;;;;;;;;4996507;28;20406;-85
2022/01/08 07:42:17;;;;;;;1999.90;999.90;;;;;;;;;;4972160;28;20029;-86
2022/01/08 07:44:44;;;;;;;1995.40;560.88;;;;;;;;;;5000097;28;20116;-86
2022/01/08 07:47:13;;;;;;;1755.93;612.45;;;;;;;;;;5000182;28;20043;-86
2022/01/08 07:49:39;;;;;;;1999.90;635.78;;;;;;;;;;5000069;28;20083;-86
2022/01/08 07:52:05;;;;;;;1999.90;672.35;;;;;;;;;;4984104;28;20037;-86
2022/01/08 07:54:31;;;;;;;1999.90;999.90;;;;;;;;;;4999622;28;20026;-86
2022/01/08 07:56:56;;;;;;;1823.43;562.58;;;;;;;;;;5000477;28;20057;-85
2022/01/08 07:59:22;;;;;;;1999.90;999.90;;;;;;;;;;5000204;28;20078;-86
2022/01/08 08:01:47;;;;;;;1999.90;999.90;;;;;;;;;;4999570;28;20044;-87
2022/01/08 08:04:13;;;;;;;1821.90;837.47;;;;;;;;;;4999942;28;20037;-86
2022/01/08 08:06:47;;;;;;;1999.90;651.92;;;;;;;;;;4989009;28;20034;-87
2022/01/08 08:09:13;;;;;;;1999.90;999.90;;;;;;;;;;4979666;28;20026;-87
2022/01/08 08:11:39;;;;;;;1999.90;935.38;;;;;;;;;;4978784;28;20487;-87
2022/01/08 08:14:04;;;;;;;1999.90;999.90;;;;;;;;;;4979229;28;20029;-87
2022/01/08 08:16:31;;;;;;;1999.90;692.38;;;;;;;;;;4980551;28;20034;-86
2022/01/08 08:18:56;;;;;;;1999.90;941.53;;;;;;;;;;4964035;28;20022;-84
2022/01/08 08:21:29;;;;;;;1999.90;798.75;;;;;;;;;;4980263;28;20053;-85
2022/01/08 08:23:55;;;;;;;1999.90;742.67;;;;;;;;;;4979308;28;20037;-85
2022/01/08 08:26:21;;;;;;;1999.90;890.92;;;;;;;;;;4985194;28;20276;-85
2022/01/08 08:28:48;;;;;;;1999.90;736.47;;;;;;;;;;4999420;28;20385;-85
2022/01/08 08:31:13;;;;;;;1974.80;638.35;;;;;;;;;;5011438;28;20028;-86
2022/01/08 08:33:39;;;;;;;1999.90;652.38;;;;;;;;;;5000123;28;20059;-86
2022/01/08 08:36:06;;;;;;;1999.90;999.90;;;;;;;;;;5008918;28;20029;-86
2022/01/08 08:38:31;;;;;;;1852.20;705.67;;;;;;;;;;5012059;28;20115;-86
2022/01/08 08:40:58;;;;;;;1999.90;909.40;;;;;;;;;;5011855;28;20057;-85
2022/01/08 08:43:25;;;;;;;1999.90;948.35;;;;;;;;;;4995458;28;20025;-86
2022/01/08 08:45:51;;;;;;;1999.90;696.97;;;;;;;;;;5006459;28;20053;-91
2022/01/08 08:48:17;;;;;;;1999.90;999.90;;;;;;;;;;5011728;28;20016;-84
2022/01/08 08:50:45;;;;;;;1999.90;924.20;;;;;;;;;;5018900;28;20220;-87
2022/01/08 08:53:12;;;;;;;1999.90;875.78;;;;;;;;;;5009710;28;20377;-86
2022/01/08 08:55:38;;;;;;;1999.90;741.80;;;;;;;;;;4999000;28;20034;-86
2022/01/08 08:58:07;;;;;;;1999.90;719.58;;;;;;;;;;4982345;28;20026;-87
2022/01/08 09:00:33;;;;;;;1999.90;814.22;;;;;;;;;;4998425;28;20037;-86
2022/01/08 09:03:00;;;;;;;1999.90;841.55;;;;;;;;;;4984419;28;20100;-90
2022/01/08 09:05:31;;;;;;;1999.90;931.42;;;;;;;;;;5020481;28;20049;-92
2022/01/08 09:07:59;;;;;;;1999.90;947.08;;;;;;;;;;5019044;28;20402;-90
2022/01/08 09:10:27;;;;;;;1953.20;849.08;;;;;;;;;;4990726;28;20202;-88
2022/01/08 09:12:54;;;;;;;1999.90;566.10;;;;;;;;;;5024419;28;20463;-89
2022/01/08 09:15:25;;;;;;;1999.90;571.35;;;;;;;;;;4983185;28;20087;-88
2022/01/08 09:17:52;;;;;;;1999.90;654.33;;;;;;;;;;4983712;28;20116;-88
2022/01/08 09:20:18;;;;;;;1999.90;858.25;;;;;;;;;;5016042;28;20029;-89
2022/01/08 09:22:43;;;;;;;1999.90;623.20;;;;;;;;;;4986947;28;20073;-89
2022/01/08 09:25:09;;;;;;;1999.90;860.05;;;;;;;;;;5007760;28;20084;-88
2022/01/08 09:27:34;;;;;;;1528.57;495.83;;;;;;;;;;4979317;28;20022;-88
2022/01/08 09:30:01;;;;;;;1999.90;635.08;;;;;;;;;;4987593;28;20125;-88
2022/01/08 09:32:26;;;;;;;1999.90;649.63;;;;;;;;;;5011289;28;20030;-87
2022/01/08 09:34:53;;;;;;;1889.03;426.75;;;;;;;;;;5005857;28;20120;-88
2022/01/08 09:37:18;;;;;;;1999.90;630.72;;;;;;;;;;4998132;28;20475;-88
2022/01/08 09:39:43;;;;;;;1915.43;737.00;;;;;;;;;;5008465;28;20044;-88
2022/01/08 09:42:09;;;;;;;1999.90;530.10;;;;;;;;;;5018172;28;20038;-87
2022/01/08 09:44:37;;;;;;;1999.90;803.08;;;;;;;;;;5011861;28;20037;-88
2022/01/08 09:47:04;;;;;;;1999.90;759.15;;;;;;;;;;5006038;28;20391;-88
2022/01/08 09:49:29;;;;;;;1999.90;671.10;;;;;;;;;;4998678;28;20136;-88
2022/01/08 09:51:56;;;;;;;1999.90;878.28;;;;;;;;;;4987458;28;20104;-88
2022/01/08 09:54:21;;;;;;;1999.90;565.15;;;;;;;;;;4999476;28;20368;-88
2022/01/08 09:56:47;;;;;;;1999.90;757.80;;;;;;;;;;5030821;28;20033;-88
2022/01/08 09:59:12;;;;;;;1999.90;992.08;;;;;;;;;;5025733;28;20033;-88
2022/01/08 10:01:38;;;;;;;1999.90;906.53;;;;;;;;;;5010769;28;20033;-88
2022/01/08 10:04:04;;;;;;;1999.90;873.03;;;;;;;;;;5010862;28;20108;-87
2022/01/08 10:06:32;;;;;;;1999.90;560.58;;;;;;;;;;4994511;28;20033;-87
2022/01/08 10:08:58;;;;;;;1999.90;786.33;;;;;;;;;;5011206;28;20053;-88
2022/01/08 10:11:23;;;;;;;1999.90;999.90;;;;;;;;;;4994322;28;20492;-87
2022/01/08 10:13:58;;;;;;;1993.45;632.13;;;;;;;;;;4994985;28;20062;-88
2022/01/08 10:19:17;;;;;;;1999.90;805.00;;;;;;;;;;5011085;28;20034;-87
2022/01/08 10:21:43;;;;;;;1999.90;556.53;;;;;;;;;;5043369;28;20565;-87
2022/01/08 10:24:09;;;;;;;1897.13;831.30;;;;;;;;;;5027323;28;20098;-87
2022/01/08 10:26:36;;;;;;;1999.90;914.17;;;;;;;;;;5030424;28;20026;-86
2022/01/08 10:29:03;;;;;;;1999.90;816.40;;;;;;;;;;5030531;28;20025;-86
2022/01/08 10:31:33;;;;;;;1999.90;945.40;;;;;;;;;;5030061;28;20128;-86
2022/01/08 10:34:01;;;;;;;1999.90;838.60;;;;;;;;;;5030257;28;20029;-87
2022/01/08 10:36:27;;;;;;;1999.90;961.75;;;;;;;;;;5018227;28;20376;-86
2022/01/08 10:38:54;;;;;;;1999.90;917.63;;;;;;;;;;5005403;28;20029;-86
2022/01/08 10:41:20;;;;;;;1999.90;999.90;;;;;;;;;;5000892;28;20048;-86
2022/01/08 10:43:46;;;;;;;1999.90;791.45;;;;;;;;;;5017279;28;20034;-86
2022/01/08 10:46:13;;;;;;;1999.90;852.83;;;;;;;;;;5013411;28;20037;-86
2022/01/08 10:48:42;;;;;;;1999.90;754.35;;;;;;;;;;4977591;28;20125;-86
2022/01/08 10:51:13;;;;;;;1999.90;736.35;;;;;;;;;;4981540;28;20022;-87
2022/01/08 10:54:00;;;;;;;1999.90;999.90;;;;;;;;;;4977299;28;20029;-86
2022/01/08 10:56:44;;;;;;;1997.78;731.95;;;;;;;;;;5016968;28;20030;-86
2022/01/08 10:59:28;;;;;;;1999.90;611.33;;;;;;;;;;5016920;28;20107;-86
2022/01/08 11:02:07;;;;;;;1999.90;706.88;;;;;;;;;;5033049;28;20091;-86
2022/01/08 11:04:40;;;;;;;1999.90;900.38;;;;;;;;;;4985301;28;20487;-86
2022/01/08 11:07:13;;;;;;;1901.25;467.77;;;;;;;;;;5001507;28;20112;-86
2022/01/08 11:09:41;;;;;;;1999.90;999.90;;;;;;;;;;5017024;28;20033;-86
2022/01/08 11:12:08;;;;;;;1999.90;635.95;;;;;;;;;;4984561;28;20024;-87
2022/01/08 11:14:49;;;;;;;1999.90;807.78;;;;;;;;;;4996697;28;20038;-87
2022/01/08 11:17:31;;;;;;;1999.90;839.42;;;;;;;;;;4999450;28;20025;-87
2022/01/08 11:19:59;;;;;;;1999.90;999.90;;;;;;;;;;5019643;28;20032;-86
2022/01/08 11:22:27;;;;;;;1999.90;666.20;;;;;;;;;;5016748;28;20121;-84
2022/01/08 11:25:06;;;;;;;1999.90;999.90;;;;;;;;;;5028684;28;20025;-85
2022/01/08 11:27:44;;;;;;;1999.90;953.47;;;;;;;;;;5049152;28;20371;-85
2022/01/08 11:30:19;;;;;;;1741.22;796.45;;;;;;;;;;5032702;28;20514;-84
2022/01/08 11:32:45;;;;;;;1999.90;999.90;;;;;;;;;;5011679;28;20050;-84
2022/01/08 11:35:11;;;;;;;1999.90;999.42;;;;;;;;;;5013946;28;20073;-84
2022/01/08 11:37:36;;;;;;;1999.90;852.28;;;;;;;;;;4983341;28;20387;-84
2022/01/08 11:40:05;;;;;;;1999.90;999.90;;;;;;;;;;5015805;28;20133;-85
2022/01/08 11:42:32;;;;;;;1831.28;842.33;;;;;;;;;;5004235;28;20045;-85
2022/01/08 11:44:57;;;;;;;1999.90;734.05;;;;;;;;;;4992772;28;20120;-85
2022/01/08 11:47:23;;;;;;;1999.90;999.90;;;;;;;;;;5017076;28;20605;-86
2022/01/08 11:49:48;;;;;;;1999.90;636.63;;;;;;;;;;5015226;28;20025;-86
2022/01/08 11:52:19;;;;;;;1999.90;858.47;;;;;;;;;;5012874;28;20404;-86
2022/01/08 11:54:45;;;;;;;1999.90;999.90;;;;;;;;;;5039347;28;20509;-85
2022/01/08 11:57:18;;;;;;;1999.90;799.80;;;;;;;;;;5004409;28;20072;-86
2022/01/08 11:59:45;;;;;;;1999.90;999.90;;;;;;;;;;5014499;28;20108;-86
2022/01/08 12:02:11;;;;;;;1999.90;812.78;;;;;;;;;;5012603;28;20040;-93
2022/01/08 12:04:37;;;;;;;1999.90;952.75;;;;;;;;;;5015231;28;20030;-91
2022/01/08 12:07:33;;;;;;;1999.90;999.90;;;;;;;;;;5032103;28;20029;-88
2022/01/08 12:10:20;;;;;;;1999.90;650.97;;;;;;;;;;5031836;28;20024;-92
2022/01/08 12:12:46;;;;;;;1999.90;655.67;;;;;;;;;;5031769;28;20548;-86
2022/01/08 12:15:12;;;;;;;1999.90;897.97;;;;;;;;;;5034338;28;20025;-86
2022/01/08 12:17:53;;;;;;;1502.70;317.38;;;;;;;;;;4996421;28;20167;-86
2022/01/08 12:20:37;;;;;;;1999.90;999.90;;;;;;;;;;5010121;28;20018;-86
2022/01/08 12:23:30;;;;;;;1999.90;891.92;;;;;;;;;;5030673;28;20411;-87
2022/01/08 12:25:56;;;;;;;1999.90;811.95;;;;;;;;;;5010928;28;20141;-88
2022/01/08 12:28:42;;;;;;;1999.90;665.92;;;;;;;;;;5031328;28;20444;-86
2022/01/08 12:31:42;;;;;;;1999.90;969.88;;;;;;;;;;5031165;28;20033;-88
2022/01/08 12:34:25;;;;;;;1999.90;987.38;;;;;;;;;;5028137;28;20038;-88
2022/01/08 12:36:54;;;;;;;1999.90;999.90;;;;;;;;;;5029599;28;20111;-90
2022/01/08 12:39:42;;;;;;;1742.53;462.58;;;;;;;;;;5001684;28;20123;-93
2022/01/08 12:42:26;;;;;;;1999.90;846.80;;;;;;;;;;5012527;28;20029;-91
2022/01/08 12:45:07;;;;;;;1738.43;801.72;;;;;;;;;;4996844;28;20037;-91
2022/01/08 12:47:42;;;;;;;1999.90;758.05;;;;;;;;;;4996650;28;20057;-91
2022/01/08 12:50:18;;;;;;;1999.90;999.90;;;;;;;;;;4996234;28;20033;-90
2022/01/08 12:53:05;;;;;;;1999.90;872.67;;;;;;;;;;4984926;28;20022;-90
2022/01/08 12:55:32;;;;;;;1999.90;622.20;;;;;;;;;;5015714;28;20048;-91
2022/01/08 12:57:58;;;;;;;1970.82;879.63;;;;;;;;;;5048548;28;20036;-91
2022/01/08 13:00:24;;;;;;;1861.20;455.00;;;;;;;;;;5015160;28;20446;-91
2022/01/08 13:02:49;;;;;;;11.70;1.90;;;;;;;;;;5047109;28;20075;-90
2022/01/08 13:05:15;;;;;;;7.28;1.40;;;;;;;;;;5031652;28;20488;-87
2022/01/08 13:07:50;;;;;;;5.35;2.08;;;;;;;;;;5031572;28;20021;-87
2022/01/08 13:10:18;;;;;;;7.40;2.30;;;;;;;;;;5031506;28;20044;-88
2022/01/08 13:13:00;;;;;;;6.57;1.50;;;;;;;;;;5014781;28;20026;-87
2022/01/08 13:15:30;;;;;;;7.50;1.95;;;;;;;;;;5028757;28;20033;-87
2022/01/08 13:17:55;;;;;;;8.23;1.63;;;;;;;;;;5011190;28;20088;-88
2022/01/08 13:20:22;;;;;;;8.20;1.52;;;;;;;;;;4995031;28;20026;-88
2022/01/08 13:22:48;;;;;;;7.95;1.23;;;;;;;;;;4963134;28;20021;-89
2022/01/08 13:25:14;;;;;;;4.60;1.45;;;;;;;;;;4979071;28;20132;-89
2022/01/08 13:27:40;;;;;;;7.00;1.20;;;;;;;;;;4975145;28;20578;-87
2022/01/08 13:30:09;;;;;;;6.85;1.83;;;;;;;;;;4995333;28;20030;-88
2022/01/08 13:32:35;;;;;;;6.32;1.50;;;;;;;;;;4994853;28;20117;-88
2022/01/08 13:35:01;;;;;;;9.23;2.70;;;;;;;;;;5014697;28;20539;-89
2022/01/08 13:37:29;;;;;;;5.40;1.10;;;;;;;;;;5015132;28;20529;-88
2022/01/08 13:39:59;;;;;;;2.80;0.90;;;;;;;;;;4998539;28;20061;-87
2022/01/08 13:42:32;;;;;;;5.10;0.85;;;;;;;;;;5014408;28;20056;-88
2022/01/08 13:45:00;;;;;;;4.80;1.60;;;;;;;;;;4998965;28;20124;-88
2022/01/08 13:47:30;;;;;;;3.70;1.10;;;;;;;;;;4982609;28;20464;-88
2022/01/08 13:50:10;;;;;;;5.70;1.70;;;;;;;;;;4999011;28;20033;-87
2022/01/08 13:52:40;;;;;;;6.00;1.60;;;;;;;;;;5010942;28;20137;-87
2022/01/08 13:55:32;;;;;;;7.18;1.50;;;;;;;;;;4979359;28;20495;-88
2022/01/08 13:58:17;;;;;;;4.22;1.00;;;;;;;;;;4980757;28;20473;-87
2022/01/08 14:00:49;;;;;;;4.15;1.40;;;;;;;;;;4979936;28;20491;-87
2022/01/08 14:03:22;;;;;;;3.65;1.25;;;;;;;;;;4979444;28;20030;-87
2022/01/08 14:05:48;;;;;;;6.18;1.17;;;;;;;;;;4978466;28;20034;-87
2022/01/08 14:08:14;;;;;;;4.28;1.27;;;;;;;;;;4978644;28;20026;-86
2022/01/08 14:10:41;;;;;;;3.90;1.17;;;;;;;;;;4978739;28;20165;-87
2022/01/08 14:13:09;;;;;;;8.70;2.05;;;;;;;;;;4996061;28;20029;-87
2022/01/08 14:15:34;;;;;;;7.72;2.88;;;;;;;;;;4982074;28;20038;-87